BIKFCYDF

Guest
Details From BIKF - Keflavik Nas
To CYDF - Deer Lake
Flight Number -
Tags Generated
Created
Modified
Stats Distance 1,423 nm / 2,635 km
Max Altitude 0 ft / 0 m
Waypoints 3
Social Downloads 0
Likes 0
Share VATSIM

Download

Looking for another format? Having issues loading an existing format? Contact us
Advertisement - Login to hide

Notes

Generated

Route

BIKF FK CYDF

ID Type Via Altitude Latitude Longitude Leg Dist Tot Dist Heading (true) Name
O BIKF APT - 0 ft / 0 m 63.96448˚ -22.60545˚ - 0 nm - -
FK NDB - 0 ft / 0 m 49.26306˚ -57.30806˚ 1417 nm 1417 nm 248° / 219° JUNCTION NDB
O CYDF APT - 0 ft / 0 m 49.20533˚ -57.40033˚ 5 nm 1422 nm 226° / 226° -

Altitude Profile

Advertisement - Login to hide

Weather


0- 5 10 15 20 25 30 35+ Temperature / ° C

Clouds and Precipitation
Forecast for 2018-05-23 00:00 UTC. Updated 3 hours ago

Ground ~20,000 ft ~40,000 ft Winds

BIKF

Details ICAO BIKF (KEF)
Name Keflavik
Region Iceland
Timezone Atlantic/Reykjavik (UTC+0.0)
Stats Elevation 170 ft / 52 m (AMSL)
Location 63.981612° -22.614563°
Runways 2
Magnetic Variation 13.951° W

METAR

BIKF 230130Z 18021KT 9999 -SHRA FEW018 SCT029 BKN044 06/04 Q1001

Decode

TAF

TAF BIKF 230104Z 2303/2403 18025KT 9999 -SHRA SCT015 BKN025 TX09/2316Z TN05/2305Z TEMPO 2303/2306 SHRA BKN015CB BECMG 2314/2317 19015KT

Decode

Departure Runways

ID Width Length Bearing (true) Bearing (mag) Surface Threshold Offset Overrun Length
02 197 ft / 60 m 9,997 ft / 3,047 m 0.02° 13.97° Asphalt 0 ft / 0 m 492 ft / 150 m
11 197 ft / 60 m 10,022 ft / 3,055 m 89.97° 103.92° Asphalt 0 ft / 0 m 246 ft / 75 m
20 197 ft / 60 m 9,997 ft / 3,047 m 180.02° 193.97° Asphalt 0 ft / 0 m 98 ft / 30 m
29 197 ft / 60 m 10,022 ft / 3,055 m 270.02° 283.97° Asphalt 0 ft / 0 m 197 ft / 60 m

CYDF

Details ICAO CYDF (YDF)
Name DEER LAKE
Region Canada
Timezone America/St_Johns (UTC-2.5)
Stats Elevation 72 ft / 22 m (AMSL)
Location 49.211000° -57.391246°
Runways 1
Magnetic Variation 19.054° W

METAR

CYDF 230100Z 32003KT 280V350 15SM FEW020 SCT030 BKN075 OVC110 04/M01 A2995 RMK SC2SC2AC2AC2 SLP144

Decode

TAF

TAF AMD TAF AMD CYDF 230148Z 2302/2314 VRB03KT P6SM FEW020 BKN070 OVC110 TEMPO 2302/2306 6SM -RA BR BKN020 OVC050 BECMG 2304/2306 22012KT FM230600 22012KT WS005/24032KT 6SM -RA BR OVC020 FM230900 24012G22KT 6SM -RA BR OVC008 RMK NXT FCST BY 230800Z

Decode

Destination Runways

ID Width Length Bearing (true) Bearing (mag) Surface Threshold Offset Overrun Length
07 151 ft / 46 m 5,989 ft / 1,825 m 46.32° 65.37° Asphalt 0 ft / 0 m 0 ft / 0 m
25 151 ft / 46 m 5,989 ft / 1,825 m 226.34° 245.39° Asphalt 0 ft / 0 m 0 ft / 0 m

Approach Navaids

Runway Type Ident Frequency Range Bearing (true) Bearing (mag) Slope Elevation
25 Localiser IDF 110.30 MHz 18 nm / 33 km 226.30° 245.35° - 72 ft / 22 m (AMSL)
25 Glidescope IDF 110.30 MHz 10 nm / 19 km 249.00° 268.05° 2.70° 72 ft / 22 m (AMSL)

Popular Alternatives